HPG weather

Transener S.A. Heliport
Piedra Del Aguila, Neuquén Province, Argentina

Public forecast

Using degrees Celsius for public forecast. Weather courtesy of forecast.io.

METAR (pilot weather report)

Report is more than 6 hours old.

Closest report is Aviador C. Campos Airport, 34.6 nm (64.1 km) W. Retrieved 2019/05/18 15:37 UTC (8 days ago):

SAZY 181537Z 23012KT 9999 -RA BKN030 07/01 Q1022

TAF (pilot weather forecast)

Forecast is more than 12 hours old.

Closest forecast is Aviador C. Campos Airport, 34.6 nm (64.1 km) W. Retrieved 2019/05/26 00:42 UTC (24 hours ago):

TAF SAZY 262300Z 2700/2724 27010KT 9999 BKN025 TX08/2718Z TN00/2711Z BECMG 2712/2714 28012KT FEW020 BKN025 PROB30 TEMPO 2713/2716 SHRA BKN020 FEW045TCU BECMG 2716/2718 28018KT